Airfield :
LOGIN :

Register | Disclaimer

   EN    FR    IT 

 










Legend :    VFR   Marginal VFR   IFR   Intensive IFR   Very Intensive IFR
Visi :
Ceiling :
>= 8 km
>= 3000ft
5 to 8 km
1000 to 3000 ft
1500m to 5 km
500 to 1000 ft
800 to 1500m
200 to 500 ft
< 800m
< 200 ft
Symbols :   Thunderstorms  Fog  Heavy snow  Heavy precipitations  Wind > 20 kt
SIGMETs :     Misc.  Thunderstorms  Icing  Turbulence  Mountain Waves  Volcanic Ashes






- Airport Elevation : 36 ft


EGXV - RAF Leconfield

CURRENT METAR :
  • 071620Z AUTO 24011KT 9999 NCD 14/10 Q1010

EXPIRED METARs :
  • 071550Z AUTO 23011KT 9999 NCD 13/10 Q1010
  • 071520Z AUTO 24010KT 9999 // FEW079/// 13/10 Q1010
  • 071450Z AUTO 24009KT 9999 // FEW062/// SCT100/// 13/11 Q1010
  • 071420Z AUTO 23011KT 9999 -DZ BKN060/// BKN072/// 12/10 Q1010
  • 071350Z AUTO 24012KT 4400 RA BKN054/// SCT072/// 12/10 Q1011

TAF N/A



MET'MAP, your aeronautical weather chart ! - Copyright ORBIFLY December 2007 - Disclaimer

ORBIFLY MET'MAP TEAM :

Programming & Development : Alexandra Zaïnal
Original concept : Baudouin d'Aumeries
Technical & hardware support : Manuel Goepfert
Assistance : Marc-Olivier Méhu




SOURCES & CREDITS :

   NOAA